createdAt,value
2022-08-07T00:01:44.206Z,102674.81
2022-08-07T00:04:09.555Z,102671.13
2022-08-07T00:06:45.533Z,102669.06
2022-08-07T00:09:22.647Z,102678.69
2022-08-07T00:11:55.861Z,102675.81
2022-08-07T00:14:30.266Z,102670.06
2022-08-07T00:16:59.274Z,102672.97
2022-08-07T00:19:34.208Z,102676.88
2022-08-07T00:22:24.837Z,102676.25
2022-08-07T00:25:07.514Z,102675.44
2022-08-07T00:27:53.534Z,102669.97
2022-08-07T00:30:27.227Z,102663.59
2022-08-07T00:32:59.350Z,102655.25
2022-08-07T00:35:27.616Z,102665.56
2022-08-07T00:37:57.641Z,102661.53
2022-08-07T00:40:39.060Z,102661.63
2022-08-07T00:43:09.838Z,102655.31
2022-08-07T00:45:41.726Z,102665.41
2022-08-07T00:48:13.252Z,102656.97
2022-08-07T00:50:50.847Z,102665.03
2022-08-07T00:53:20.344Z,102661.34
2022-08-07T00:56:03.061Z,102660.56
2022-08-07T00:58:31.073Z,102650.94
2022-08-07T01:00:58.665Z,102655.16
2022-08-07T01:03:55.766Z,102651.84
2022-08-07T01:06:13.121Z,102657.84
2022-08-07T01:08:43.125Z,102640.97
2022-08-07T01:12:05.021Z,102648.59
2022-08-07T01:14:05.095Z,102645.63
2022-08-07T01:16:32.102Z,102648.41
2022-08-07T01:18:58.954Z,102644.72
2022-08-07T01:21:27.007Z,102644.94
2022-08-07T01:23:57.127Z,102647.34
2022-08-07T01:26:26.047Z,102650.28
2022-08-07T01:28:54.087Z,102645.16
2022-08-07T01:31:27.937Z,102658.53
2022-08-07T01:34:08.828Z,102650.19
2022-08-07T01:36:36.426Z,102660.38
2022-08-07T01:39:09.944Z,102658.78
2022-08-07T01:41:40.899Z,102663.28
2022-08-07T01:44:21.766Z,102663.34
2022-08-07T01:46:50.289Z,102668.53
2022-08-07T01:49:16.971Z,102666.69
2022-08-07T01:52:01.522Z,102670.34
2022-08-07T01:54:36.765Z,102669.88
2022-08-07T01:57:24.928Z,102672.00
2022-08-07T02:00:01.009Z,102671.31
2022-08-07T02:03:12.204Z,102662.63
2022-08-07T02:05:53.696Z,102658.56
2022-08-07T02:08:29.394Z,102663.13
2022-08-07T02:10:59.588Z,102652.91
2022-08-07T02:13:57.427Z,102652.25
2022-08-07T02:16:28.384Z,102661.59
2022-08-07T02:18:56.291Z,102653.22
2022-08-07T02:21:24.365Z,102658.00
2022-08-07T02:23:53.226Z,102665.84
2022-08-07T02:26:32.809Z,102663.16
2022-08-07T02:29:06.261Z,102651.34
2022-08-07T02:31:41.087Z,102662.59
2022-08-07T02:34:11.470Z,102653.59
2022-08-07T02:36:46.012Z,102651.06
2022-08-07T02:39:16.937Z,102653.75
2022-08-07T02:42:02.945Z,102652.78
2022-08-07T02:44:37.355Z,102650.13
2022-08-07T02:47:19.231Z,102659.00
2022-08-07T02:49:58.380Z,102654.63
2022-08-07T02:52:38.686Z,102654.06
2022-08-07T02:56:03.327Z,102652.13
2022-08-07T02:58:19.276Z,102653.59
2022-08-07T03:00:51.929Z,102643.66
2022-08-07T03:03:22.506Z,102650.38
2022-08-07T03:05:54.246Z,102636.13
2022-08-07T03:08:26.717Z,102634.63
2022-08-07T03:10:57.593Z,102642.16
2022-08-07T03:13:25.434Z,102635.09
2022-08-07T03:15:58.388Z,102639.84
2022-08-07T03:18:34.705Z,102644.72
2022-08-07T03:21:08.580Z,102641.00
2022-08-07T03:24:20.820Z,102641.47
2022-08-07T03:26:31.913Z,102647.13
2022-08-07T03:29:01.996Z,102634.41
2022-08-07T03:31:42.470Z,102640.25
2022-08-07T03:34:18.727Z,102638.41
2022-08-07T03:36:53.155Z,102636.69
2022-08-07T03:39:58.969Z,102628.78
2022-08-07T03:42:10.242Z,102621.31
2022-08-07T03:44:38.639Z,102625.38
2022-08-07T03:47:13.708Z,102640.44
2022-08-07T03:49:52.022Z,102641.34
2022-08-07T03:52:26.724Z,102641.59
2022-08-07T03:55:06.519Z,102649.00
2022-08-07T03:58:32.637Z,102644.94
2022-08-07T04:00:30.669Z,102659.19
2022-08-07T04:03:03.998Z,102657.34
2022-08-07T04:05:41.056Z,102666.25
2022-08-07T04:08:18.670Z,102660.47
2022-08-07T04:10:53.845Z,102672.72
2022-08-07T04:13:27.635Z,102668.56
2022-08-07T04:15:54.775Z,102676.56
2022-08-07T04:18:56.509Z,102661.41
2022-08-07T04:21:08.267Z,102662.19
2022-08-07T04:23:43.667Z,102679.44
2022-08-07T04:26:22.943Z,102671.22
2022-08-07T04:28:51.840Z,102665.22
2022-08-07T04:31:20.097Z,102670.84
2022-08-07T04:34:06.508Z,102669.25
2022-08-07T04:36:44.014Z,102668.22
2022-08-07T04:39:12.245Z,102670.84
2022-08-07T04:41:39.028Z,102663.66
2022-08-07T04:44:12.192Z,102663.28
2022-08-07T04:47:04.980Z,102666.16
2022-08-07T04:49:57.516Z,102666.03
2022-08-07T04:52:52.250Z,102670.63
2022-08-07T04:58:13.822Z,102667.25
2022-08-07T04:59:09.189Z,102664.09
2022-08-07T05:01:42.811Z,102660.59
2022-08-07T05:04:17.917Z,102659.13
2022-08-07T05:06:57.340Z,102657.91
2022-08-07T05:09:45.998Z,102651.72
2022-08-07T05:12:27.376Z,102648.34
2022-08-07T05:15:23.553Z,102651.03
2022-08-07T05:17:57.962Z,102641.34
2022-08-07T05:20:33.704Z,102633.34
2022-08-07T05:23:15.614Z,102629.88
2022-08-07T05:26:10.726Z,102636.13
2022-08-07T05:28:34.964Z,102637.53
2022-08-07T05:31:03.793Z,102631.19
2022-08-07T05:33:35.460Z,102634.50
2022-08-07T05:36:06.936Z,102637.47
2022-08-07T05:39:01.499Z,102634.44
2022-08-07T05:41:27.105Z,102634.63
2022-08-07T05:44:15.357Z,102633.97
2022-08-07T05:46:43.453Z,102635.66
2022-08-07T05:49:12.896Z,102638.03
2022-08-07T05:51:46.510Z,102637.28
2022-08-07T05:54:30.331Z,102645.72
2022-08-07T05:56:58.960Z,102633.31
2022-08-07T05:59:28.071Z,102635.81
2022-08-07T06:01:58.388Z,102633.63
2022-08-07T06:04:29.960Z,102646.22
2022-08-07T06:07:03.770Z,102635.19
2022-08-07T06:10:04.547Z,102636.16
2022-08-07T06:12:20.978Z,102623.03
2022-08-07T06:14:55.190Z,102606.06
2022-08-07T06:17:37.545Z,102612.41
2022-08-07T06:20:06.222Z,102602.06
2022-08-07T06:22:42.214Z,102599.28
2022-08-07T06:25:28.689Z,102604.53
2022-08-07T06:28:06.165Z,102607.75
2022-08-07T06:30:37.370Z,102590.94
2022-08-07T06:33:09.835Z,102587.41
2022-08-07T06:35:48.056Z,102593.28
2022-08-07T06:38:30.385Z,102580.34
2022-08-07T06:40:59.937Z,102593.25
2022-08-07T06:43:39.773Z,102586.31
2022-08-07T06:46:11.623Z,102585.75
2022-08-07T06:48:41.964Z,102590.25
2022-08-07T06:51:16.903Z,102585.59
2022-08-07T06:55:28.725Z,102589.16
2022-08-07T06:56:51.732Z,102581.59
2022-08-07T07:00:13.187Z,102580.09
2022-08-07T07:02:15.688Z,102574.38
2022-08-07T07:05:02.858Z,102565.94
2022-08-07T07:08:00.148Z,102556.66
2022-08-07T07:10:21.339Z,102571.19
2022-08-07T07:12:58.795Z,102564.66
2022-08-07T07:15:35.787Z,102566.66
2022-08-07T07:18:06.047Z,102556.84
2022-08-07T07:20:55.821Z,102554.53
2022-08-07T07:24:09.952Z,102551.81
2022-08-07T07:26:32.362Z,102556.47
2022-08-07T07:29:56.835Z,102553.50
2022-08-07T07:32:03.459Z,102553.09
2022-08-07T07:34:32.234Z,102555.91
2022-08-07T07:37:14.549Z,102549.94
2022-08-07T07:39:55.312Z,102554.28
2022-08-07T07:42:33.257Z,102554.34
2022-08-07T07:45:02.510Z,102563.81
2022-08-07T07:47:30.377Z,102560.63
2022-08-07T07:50:33.642Z,102554.72
2022-08-07T07:53:20.476Z,102545.03
2022-08-07T07:56:00.970Z,102542.25
2022-08-07T07:58:40.220Z,102559.09
2022-08-07T08:02:02.707Z,102548.34
2022-08-07T08:04:11.087Z,102553.94
2022-08-07T08:06:50.992Z,102559.34
2022-08-07T08:09:22.706Z,102550.69
2022-08-07T08:12:02.656Z,102565.06
2022-08-07T08:14:36.650Z,102561.91
2022-08-07T08:17:32.400Z,102555.53
2022-08-07T08:20:18.574Z,102560.34
2022-08-07T08:23:09.358Z,102560.34
2022-08-07T08:25:58.214Z,102553.94
2022-08-07T08:28:38.193Z,102549.97
2022-08-07T08:31:15.847Z,102540.69
2022-08-07T08:33:50.205Z,102542.13
2022-08-07T08:36:30.124Z,102539.59
2022-08-07T08:39:01.679Z,102545.34
2022-08-07T08:41:57.919Z,102540.19
2022-08-07T08:44:40.897Z,102531.22
2022-08-07T08:47:25.904Z,102539.47
2022-08-07T08:50:17.565Z,102537.25
2022-08-07T08:53:19.703Z,102536.47
2022-08-07T08:56:27.188Z,102543.78
2022-08-07T08:58:59.736Z,102541.75
2022-08-07T09:01:59.689Z,102538.53
2022-08-07T09:04:31.691Z,102532.69
2022-08-07T09:07:06.321Z,102541.97
2022-08-07T09:09:57.139Z,102537.81
2022-08-07T09:12:42.028Z,102520.94
2022-08-07T09:16:25.687Z,102521.69
2022-08-07T09:18:58.674Z,102522.88
2022-08-07T09:21:58.055Z,102519.72
2022-08-07T09:24:58.723Z,102527.63
2022-08-07T09:27:20.608Z,102524.75
2022-08-07T09:30:03.873Z,102524.91
2022-08-07T09:32:33.357Z,102526.84
2022-08-07T09:36:04.929Z,102518.03
2022-08-07T09:38:10.403Z,102526.22
2022-08-07T09:41:05.916Z,102522.97
2022-08-07T09:44:06.470Z,102520.81
2022-08-07T09:47:50.519Z,102518.88
2022-08-07T09:50:18.657Z,102508.13
2022-08-07T09:53:07.771Z,102498.97
2022-08-07T09:56:34.017Z,102502.59
2022-08-07T09:59:21.965Z,102495.69
2022-08-07T10:02:29.648Z,102492.66
2022-08-07T10:05:59.461Z,102490.81
2022-08-07T10:08:30.786Z,102492.25
2022-08-07T10:12:02.249Z,102486.66
2022-08-07T10:14:31.287Z,102490.91
2022-08-07T10:17:19.963Z,102488.22
2022-08-07T10:20:21.895Z,102481.41
2022-08-07T10:23:07.755Z,102485.91
2022-08-07T10:25:57.966Z,102492.22
2022-08-07T10:28:33.254Z,102479.00
2022-08-07T10:31:38.830Z,102475.34
2022-08-07T10:34:18.288Z,102464.31
2022-08-07T10:36:58.709Z,102468.25
2022-08-07T10:39:41.499Z,102466.06
2022-08-07T10:42:40.752Z,102469.66
2022-08-07T10:45:44.434Z,102476.09
2022-08-07T10:48:24.775Z,102469.84
2022-08-07T10:51:39.540Z,102471.22
2022-08-07T10:54:39.220Z,102466.00
2022-08-07T10:57:22.097Z,102464.59
2022-08-07T11:00:39.423Z,102457.56
2022-08-07T11:03:12.732Z,102458.13
2022-08-07T11:05:52.575Z,102444.50
2022-08-07T11:09:02.798Z,102451.81
2022-08-07T11:11:43.368Z,102453.69
2022-08-07T11:14:46.351Z,102447.16
2022-08-07T11:17:23.327Z,102439.09
2022-08-07T11:20:12.642Z,102436.03
2022-08-07T11:23:02.788Z,102422.22
2022-08-07T11:25:48.173Z,102411.66
2022-08-07T11:28:20.235Z,102416.31
2022-08-07T11:31:21.313Z,102413.44
2022-08-07T11:34:00.261Z,102402.72
2022-08-07T11:36:43.795Z,102409.13
2022-08-07T11:39:23.282Z,102409.56
2022-08-07T11:42:18.650Z,102410.75
2022-08-07T11:44:58.142Z,102414.66
2022-08-07T11:47:56.035Z,102403.03
2022-08-07T11:50:57.661Z,102412.78
2022-08-07T11:53:35.308Z,102393.69
2022-08-07T11:56:26.965Z,102405.66
2022-08-07T12:00:08.256Z,102408.56
2022-08-07T12:02:02.923Z,102393.53
2022-08-07T12:05:09.027Z,102395.66
2022-08-07T12:07:53.402Z,102385.13
2022-08-07T12:10:41.974Z,102380.16
2022-08-07T12:13:37.315Z,102383.91
2022-08-07T12:16:10.697Z,102384.72
2022-08-07T12:19:21.592Z,102381.38
2022-08-07T12:22:38.621Z,102388.22
2022-08-07T12:26:21.540Z,102379.75
2022-08-07T12:29:00.609Z,102383.38
2022-08-07T12:31:53.209Z,102385.69
2022-08-07T12:34:26.684Z,102376.28
2022-08-07T12:36:56.409Z,102377.78
2022-08-07T12:39:43.000Z,102370.44
2022-08-07T12:42:13.415Z,102371.06
2022-08-07T12:44:45.653Z,102369.91
2022-08-07T12:47:43.935Z,102371.03
2022-08-07T12:50:38.930Z,102370.03
2022-08-07T12:54:24.320Z,102365.66
2022-08-07T12:56:34.461Z,102358.88
2022-08-07T12:59:05.076Z,102361.66
2022-08-07T13:01:54.610Z,102359.63
2022-08-07T13:05:01.005Z,102369.53
2022-08-07T13:08:13.699Z,102359.81
2022-08-07T13:10:59.423Z,102359.34
2022-08-07T13:13:47.369Z,102362.38
2022-08-07T13:16:27.655Z,102361.13
2022-08-07T13:19:46.287Z,102361.06
2022-08-07T13:22:30.955Z,102358.41
2022-08-07T13:25:06.869Z,102362.78
2022-08-07T13:28:12.531Z,102347.28
2022-08-07T13:30:48.969Z,102342.41
2022-08-07T13:34:30.946Z,102349.63
2022-08-07T13:36:41.016Z,102340.16
2022-08-07T13:40:33.849Z,102347.94
2022-08-07T13:42:27.110Z,102340.84
2022-08-07T13:46:11.610Z,102334.34
2022-08-07T13:48:05.918Z,102333.69
2022-08-07T13:50:33.798Z,102328.78
2022-08-07T13:53:05.041Z,102341.41
2022-08-07T13:55:36.887Z,102327.22
2022-08-07T13:58:31.709Z,102330.66
2022-08-07T14:01:10.766Z,102333.63
2022-08-07T14:04:05.536Z,102329.31
2022-08-07T14:06:38.364Z,102318.84
2022-08-07T14:09:07.234Z,102323.72
2022-08-07T14:11:53.949Z,102325.13
2022-08-07T14:14:38.580Z,102315.00
2022-08-07T14:17:13.013Z,102311.06
2022-08-07T14:20:41.971Z,102318.75
2022-08-07T14:22:51.603Z,102313.53
2022-08-07T14:25:25.405Z,102318.16
2022-08-07T14:28:31.167Z,102318.00
2022-08-07T14:30:47.971Z,102314.72
2022-08-07T14:33:22.345Z,102312.84
2022-08-07T14:35:55.732Z,102303.59
2022-08-07T14:38:30.927Z,102317.06
2022-08-07T14:41:05.047Z,102312.28
2022-08-07T14:43:57.455Z,102313.44
2022-08-07T14:46:30.654Z,102310.84
2022-08-07T14:49:00.352Z,102305.81
2022-08-07T14:52:04.500Z,102302.38
2022-08-07T14:54:35.913Z,102310.06
2022-08-07T14:57:18.659Z,102310.09
2022-08-07T15:00:03.172Z,102300.75
2022-08-07T15:02:34.604Z,102301.53
2022-08-07T15:05:02.996Z,102293.81
2022-08-07T15:07:51.114Z,102296.69
2022-08-07T15:10:25.057Z,102302.09
2022-08-07T15:12:59.856Z,102286.56
2022-08-07T15:18:41.715Z,102282.91
2022-08-07T15:21:58.884Z,102290.28
2022-08-07T15:25:15.252Z,102293.25
2022-08-07T15:27:03.780Z,102287.16
2022-08-07T15:30:09.567Z,102287.72
2022-08-07T15:32:39.820Z,102288.56
2022-08-07T15:36:01.691Z,102291.22
2022-08-07T15:41:24.422Z,102274.69
2022-08-07T15:44:04.895Z,102284.53
2022-08-07T15:46:38.344Z,102281.63
2022-08-07T15:49:13.209Z,102271.38
2022-08-07T15:54:34.203Z,102265.13
2022-08-07T15:57:02.854Z,102275.22
2022-08-07T15:59:39.603Z,102274.81
2022-08-07T16:02:23.681Z,102276.28
2022-08-07T16:04:57.756Z,102265.47
2022-08-07T16:08:29.104Z,102271.06
2022-08-07T16:10:20.734Z,102269.19
2022-08-07T16:13:18.045Z,102261.78
2022-08-07T16:16:47.790Z,102267.13
2022-08-07T16:19:16.167Z,102265.44
2022-08-07T16:22:03.446Z,102270.91
2022-08-07T16:24:59.782Z,102274.00
2022-08-07T16:27:39.894Z,102284.41
2022-08-07T16:30:29.595Z,102271.44
2022-08-07T16:34:02.721Z,102268.16
2022-08-07T16:36:07.626Z,102280.38
2022-08-07T16:39:00.897Z,102280.22
2022-08-07T16:41:41.746Z,102279.31
2022-08-07T16:44:57.278Z,102282.44
2022-08-07T16:48:02.631Z,102280.22
2022-08-07T16:51:20.349Z,102278.28
2022-08-07T16:54:05.990Z,102276.00
2022-08-07T16:56:50.353Z,102275.31
2022-08-07T16:59:46.344Z,102286.66
2022-08-07T17:02:52.366Z,102277.44
2022-08-07T17:06:22.448Z,102282.41
2022-08-07T17:08:57.230Z,102278.59
2022-08-07T17:12:04.139Z,102272.72
2022-08-07T17:14:46.459Z,102279.84
2022-08-07T17:17:44.004Z,102274.72
2022-08-07T17:20:37.426Z,102270.19
2022-08-07T17:23:22.579Z,102270.28
2022-08-07T17:26:24.192Z,102275.97
2022-08-07T17:30:12.396Z,102279.00
2022-08-07T17:32:06.583Z,102281.66
2022-08-07T17:35:33.137Z,102277.78
2022-08-07T17:38:06.419Z,102278.25
2022-08-07T17:42:00.831Z,102282.94
2022-08-07T17:44:02.742Z,102280.94
2022-08-07T17:46:37.501Z,102275.66
2022-08-07T17:49:46.284Z,102276.84
2022-08-07T17:52:36.949Z,102269.28
2022-08-07T17:55:12.611Z,102277.03
2022-08-07T17:57:58.939Z,102269.19
2022-08-07T18:00:34.271Z,102279.59
2022-08-07T18:03:28.742Z,102282.00
2022-08-07T18:06:36.716Z,102280.03
2022-08-07T18:09:05.706Z,102276.41
2022-08-07T18:12:17.690Z,102276.28
2022-08-07T18:14:38.301Z,102289.44
2022-08-07T18:18:46.719Z,102282.59
2022-08-07T18:21:07.069Z,102287.06
2022-08-07T18:23:43.120Z,102297.44
2022-08-07T18:26:18.143Z,102290.69
2022-08-07T18:30:05.887Z,102291.59
2022-08-07T18:32:33.730Z,102302.63
2022-08-07T18:35:51.724Z,102294.94
2022-08-07T18:38:58.810Z,102297.66
2022-08-07T18:41:46.320Z,102304.25
2022-08-07T18:44:50.755Z,102305.00
2022-08-07T18:47:44.664Z,102302.56
2022-08-07T18:50:46.732Z,102313.19
2022-08-07T18:53:16.335Z,102312.03
2022-08-07T18:55:57.295Z,102315.63
2022-08-07T18:58:58.548Z,102304.41
2022-08-07T19:02:36.616Z,102316.03
2022-08-07T19:06:01.938Z,102312.50
2022-08-07T19:08:28.979Z,102311.34
2022-08-07T19:11:35.816Z,102314.97
2022-08-07T19:14:08.026Z,102315.72
2022-08-07T19:17:08.227Z,102318.59
2022-08-07T19:19:58.445Z,102324.66
2022-08-07T19:22:51.828Z,102335.47
2022-08-07T19:26:21.710Z,102329.84
2022-08-07T19:28:56.401Z,102324.25
2022-08-07T19:31:37.142Z,102332.25
2022-08-07T19:34:03.128Z,102323.44
2022-08-07T19:36:34.401Z,102331.06
2022-08-07T19:39:09.098Z,102343.09
2022-08-07T19:42:05.500Z,102341.47
2022-08-07T19:44:37.883Z,102345.47
2022-08-07T19:47:11.507Z,102349.47
2022-08-07T19:49:57.520Z,102345.47
2022-08-07T19:52:28.127Z,102353.06
2022-08-07T19:54:58.663Z,102356.63
2022-08-07T19:58:04.424Z,102357.06
2022-08-07T20:00:28.393Z,102350.22
2022-08-07T20:03:34.075Z,102347.47
2022-08-07T20:06:03.539Z,102352.66
2022-08-07T20:08:37.640Z,102360.66
2022-08-07T20:11:10.624Z,102357.44
2022-08-07T20:13:46.358Z,102363.03
2022-08-07T20:16:34.859Z,102363.00
2022-08-07T20:19:10.570Z,102366.97
2022-08-07T20:21:47.592Z,102372.16
2022-08-07T20:24:28.772Z,102367.81
2022-08-07T20:26:59.339Z,102366.19
2022-08-07T20:29:47.950Z,102372.56
2022-08-07T20:32:40.596Z,102363.78
2022-08-07T20:35:17.792Z,102371.78
2022-08-07T20:37:57.825Z,102376.13
2022-08-07T20:40:32.143Z,102377.31
2022-08-07T20:43:03.138Z,102376.91
2022-08-07T20:46:28.848Z,102376.56
2022-08-07T20:48:29.797Z,102365.22
2022-08-07T20:51:00.155Z,102384.94
2022-08-07T20:54:04.851Z,102374.84
2022-08-07T20:56:16.510Z,102378.00
2022-08-07T20:58:49.624Z,102376.81
2022-08-07T21:01:21.774Z,102377.13
2022-08-07T21:04:19.850Z,102384.31
2022-08-07T21:06:53.716Z,102382.75
2022-08-07T21:09:24.573Z,102381.56
2022-08-07T21:11:57.617Z,102385.38
2022-08-07T21:14:38.984Z,102384.25
2022-08-07T21:18:02.995Z,102393.84
2022-08-07T21:20:10.491Z,102399.41
2022-08-07T21:22:53.467Z,102397.03
2022-08-07T21:25:38.710Z,102400.56
2022-08-07T21:28:47.549Z,102400.81
2022-08-07T21:31:14.352Z,102402.38
2022-08-07T21:33:49.309Z,102403.91
2022-08-07T21:36:36.228Z,102403.56
2022-08-07T21:39:46.591Z,102407.91
2022-08-07T21:42:48.722Z,102403.56
2022-08-07T21:46:09.686Z,102403.91
2022-08-07T21:48:57.517Z,102407.84
2022-08-07T21:51:27.229Z,102407.06
2022-08-07T21:54:13.024Z,102403.09
2022-08-07T21:56:50.633Z,102409.09
2022-08-07T22:00:04.163Z,102417.44
2022-08-07T22:02:46.545Z,102421.34
2022-08-07T22:05:22.104Z,102421.91
2022-08-07T22:08:10.510Z,102433.72
2022-08-07T22:10:42.477Z,102432.97
2022-08-07T22:13:14.363Z,102432.50
2022-08-07T22:16:45.110Z,102451.34
2022-08-07T22:18:43.150Z,102454.56
2022-08-07T22:22:05.214Z,102447.78
2022-08-07T22:24:32.663Z,102462.16
2022-08-07T22:27:07.467Z,102459.19
2022-08-07T22:29:48.127Z,102466.25
2022-08-07T22:32:39.072Z,102474.22
2022-08-07T22:35:11.341Z,102482.91
2022-08-07T22:38:04.224Z,102483.75
2022-08-07T22:41:03.540Z,102488.53
2022-08-07T22:43:57.814Z,102493.91
2022-08-07T22:47:04.359Z,102497.81
2022-08-07T22:49:58.451Z,102504.59
2022-08-07T22:52:47.740Z,102508.19
2022-08-07T22:55:34.119Z,102510.66
2022-08-07T22:58:06.899Z,102510.56
2022-08-07T23:00:46.516Z,102511.59
2022-08-07T23:03:58.151Z,102511.09
2022-08-07T23:06:51.732Z,102509.59
2022-08-07T23:10:05.147Z,102512.94
2022-08-07T23:12:35.695Z,102518.16
2022-08-07T23:16:04.367Z,102511.25
2022-08-07T23:18:22.992Z,102508.84
2022-08-07T23:21:23.377Z,102501.00
2022-08-07T23:24:35.007Z,102501.75
2022-08-07T23:27:34.047Z,102507.06
2022-08-07T23:30:37.607Z,102500.44
2022-08-07T23:34:21.550Z,102516.00
2022-08-07T23:36:10.608Z,102507.75
2022-08-07T23:39:01.870Z,102507.81
2022-08-07T23:42:04.197Z,102503.16
2022-08-07T23:44:32.479Z,102503.06
2022-08-07T23:47:48.291Z,102499.78
2022-08-07T23:50:28.300Z,102505.69
2022-08-07T23:53:21.220Z,102508.47
2022-08-07T23:56:14.569Z,102514.25
2022-08-07T23:58:47.491Z,102517.13
